Time,TemperatureF,DewpointF,PressureIn,WindDirection,WindDirectionDegrees,WindSpeedMPH,WindSpeedGustMPH,Humidity,HourlyPrecipIn,Conditions,Clouds,dailyrainin,SoftwareType,DateUTC
2013-10-10 00:05:00,46.2,42.3,29.94,ENE,67,0.0,0.0,86,0.00,,,0.00,Customized_open2300,2013-10-10 07:05:00,
2013-10-10 00:10:00,46.2,42.6,29.94,ENE,67,0.0,0.0,87,0.00,,,0.00,Customized_open2300,2013-10-10 07:10:00,
2013-10-10 00:20:00,46.4,42.8,29.94,East,90,0.0,0.0,87,0.00,,,0.00,Customized_open2300,2013-10-10 07:20:00,
2013-10-10 00:25:00,46.6,42.9,29.94,East,90,0.0,0.0,87,0.00,,,0.00,Customized_open2300,2013-10-10 07:25:00,
2013-10-10 00:30:00,46.6,42.9,29.94,ENE,67,0.0,0.0,87,0.00,,,0.00,Customized_open2300,2013-10-10 07:30:00,
2013-10-10 00:40:00,46.6,42.9,29.93,SE,135,0.0,0.0,87,0.00,,,0.00,Customized_open2300,2013-10-10 07:40:00,
2013-10-10 00:45:00,46.6,42.9,29.93,ENE,67,0.0,0.0,87,0.00,,,0.00,Customized_open2300,2013-10-10 07:45:00,
2013-10-10 00:50:00,46.6,42.9,29.93,ENE,67,0.0,0.0,87,0.00,,,0.00,Customized_open2300,2013-10-10 07:50:00,
2013-10-10 00:55:00,46.6,42.9,29.93,ENE,67,0.0,0.0,87,0.00,,,0.00,Customized_open2300,2013-10-10 07:55:00,
2013-10-10 01:01:00,46.6,42.9,29.92,ENE,67,0.0,0.0,87,0.00,,,0.00,Customized_open2300,2013-10-10 08:01:00,
2013-10-10 01:10:00,46.8,43.1,29.94,ENE,67,0.0,0.0,87,0.00,,,0.00,Customized_open2300,2013-10-10 08:10:00,
2013-10-10 01:20:00,46.8,43.1,29.94,ENE,67,0.0,0.0,87,0.00,,,0.00,Customized_open2300,2013-10-10 08:20:00,
2013-10-10 01:25:00,46.8,43.1,29.94,ENE,67,0.0,0.0,87,0.00,,,0.00,Customized_open2300,2013-10-10 08:25:00,
2013-10-10 01:30:00,46.8,43.1,29.94,ENE,67,0.0,0.0,87,0.00,,,0.00,Customized_open2300,2013-10-10 08:30:00,
2013-10-10 01:35:00,46.6,42.9,29.94,ENE,67,0.0,0.0,87,0.00,,,0.00,Customized_open2300,2013-10-10 08:35:00,
2013-10-10 01:40:00,46.6,42.9,29.94,ENE,67,0.0,0.0,87,0.00,,,0.00,Customized_open2300,2013-10-10 08:40:00,
2013-10-10 01:50:00,46.6,42.9,29.94,ENE,67,0.0,0.0,87,0.00,,,0.00,Customized_open2300,2013-10-10 08:50:00,
2013-10-10 01:55:00,46.6,42.9,29.94,ENE,67,0.0,0.0,87,0.00,,,0.00,Customized_open2300,2013-10-10 08:55:00,
2013-10-10 02:01:00,46.6,42.9,29.94,ENE,67,0.0,0.0,87,0.00,,,0.00,Customized_open2300,2013-10-10 09:01:00,
2013-10-10 02:10:00,46.2,42.6,29.95,ENE,67,0.0,0.0,87,0.00,,,0.00,Customized_open2300,2013-10-10 09:10:00,
2013-10-10 02:20:00,46.2,42.6,29.95,ENE,67,0.0,0.0,87,0.00,,,0.00,Customized_open2300,2013-10-10 09:20:00,
2013-10-10 02:25:00,46.2,42.6,29.94,ENE,67,0.0,0.0,87,0.00,,,0.00,Customized_open2300,2013-10-10 09:25:00,
2013-10-10 02:35:00,46.0,42.4,29.94,ENE,67,0.0,0.0,87,0.00,,,0.00,Customized_open2300,2013-10-10 09:35:00,
2013-10-10 02:40:00,45.9,42.2,29.94,ENE,67,0.0,0.0,87,0.00,,,0.00,Customized_open2300,2013-10-10 09:40:00,
2013-10-10 02:50:00,45.7,42.1,29.94,ENE,67,0.0,0.0,87,0.00,,,0.00,Customized_open2300,2013-10-10 09:50:00,
2013-10-10 02:55:00,45.7,42.1,29.94,ENE,67,0.0,0.0,87,0.00,,,0.00,Customized_open2300,2013-10-10 09:55:00,
2013-10-10 03:01:00,45.5,41.9,29.94,ENE,67,0.0,0.0,87,0.00,,,0.00,Customized_open2300,2013-10-10 10:01:00,
2013-10-10 03:10:00,45.3,41.7,29.94,ENE,67,0.0,0.0,87,0.00,,,0.00,Customized_open2300,2013-10-10 10:10:00,
2013-10-10 03:15:00,45.1,41.5,29.94,ENE,67,0.0,0.0,87,0.00,,,0.00,Customized_open2300,2013-10-10 10:15:00,
2013-10-10 03:25:00,45.0,41.0,29.94,ENE,67,0.0,0.0,86,0.00,,,0.00,Customized_open2300,2013-10-10 10:25:00,
2013-10-10 03:35:00,44.6,40.7,29.94,ENE,67,0.0,0.0,86,0.00,,,0.00,Customized_open2300,2013-10-10 10:35:00,
2013-10-10 03:40:00,44.6,40.5,29.93,ENE,67,0.0,0.0,86,0.00,,,0.00,Customized_open2300,2013-10-10 10:40:00,
2013-10-10 03:45:00,44.4,40.8,29.93,ENE,67,0.0,0.0,87,0.00,,,0.00,Customized_open2300,2013-10-10 10:45:00,
2013-10-10 03:50:00,44.4,40.8,29.93,ENE,67,0.0,0.0,87,0.00,,,0.00,Customized_open2300,2013-10-10 10:50:00,
2013-10-10 03:55:00,44.4,40.8,29.93,ENE,67,0.0,0.0,87,0.00,,,0.00,Customized_open2300,2013-10-10 10:55:00,
2013-10-10 04:01:00,44.4,40.5,29.94,ENE,67,0.0,0.0,86,0.00,,,0.00,Customized_open2300,2013-10-10 11:01:00,
2013-10-10 04:10:00,44.2,40.3,29.94,ENE,67,0.0,0.0,86,0.00,,,0.00,Customized_open2300,2013-10-10 11:10:00,
2013-10-10 04:20:00,44.1,40.1,29.94,ENE,67,0.0,0.0,86,0.00,,,0.00,Customized_open2300,2013-10-10 11:20:00,
2013-10-10 04:25:00,43.9,40.0,29.94,ENE,67,0.0,0.0,86,0.00,,,0.00,Customized_open2300,2013-10-10 11:25:00,
2013-10-10 04:35:00,43.5,39.6,29.94,ENE,67,0.0,0.0,86,0.00,,,0.00,Customized_open2300,2013-10-10 11:35:00,
2013-10-10 04:40:00,43.5,39.9,29.94,ENE,67,0.0,0.0,87,0.00,,,0.00,Customized_open2300,2013-10-10 11:40:00,
2013-10-10 04:45:00,43.5,39.6,29.94,ENE,67,0.0,0.0,86,0.00,,,0.00,Customized_open2300,2013-10-10 11:45:00,
2013-10-10 04:50:00,43.5,39.6,29.94,ENE,67,0.0,0.0,86,0.00,,,0.00,Customized_open2300,2013-10-10 11:50:00,
2013-10-10 04:55:00,43.5,39.6,29.94,ENE,67,0.0,0.0,86,0.00,,,0.00,Customized_open2300,2013-10-10 11:55:00,
2013-10-10 05:01:00,43.5,39.6,29.94,ENE,67,0.0,0.0,86,0.00,,,0.00,Customized_open2300,2013-10-10 12:01:00,
2013-10-10 05:10:00,43.5,39.9,29.94,ESE,112,0.0,0.0,87,0.00,,,0.00,Customized_open2300,2013-10-10 12:10:00,
2013-10-10 05:15:00,43.5,39.9,29.94,SE,135,0.0,0.0,87,0.00,,,0.00,Customized_open2300,2013-10-10 12:15:00,
2013-10-10 05:20:00,43.7,40.1,29.94,SE,135,0.0,0.0,87,0.00,,,0.00,Customized_open2300,2013-10-10 12:20:00,
2013-10-10 05:25:00,43.9,40.3,29.94,SE,135,0.0,0.0,87,0.00,,,0.00,Customized_open2300,2013-10-10 12:25:00,
2013-10-10 05:30:00,44.1,40.4,29.94,SE,135,0.0,0.0,87,0.00,,,0.00,Customized_open2300,2013-10-10 12:30:00,
2013-10-10 05:40:00,44.2,40.6,29.94,SE,135,0.0,0.0,87,0.00,,,0.00,Customized_open2300,2013-10-10 12:40:00,
2013-10-10 05:45:00,44.2,40.6,29.95,SE,135,0.0,0.0,87,0.00,,,0.00,Customized_open2300,2013-10-10 12:45:00,
2013-10-10 05:55:00,44.2,40.6,29.95,SE,135,0.0,0.0,87,0.00,,,0.00,Customized_open2300,2013-10-10 12:55:00,
2013-10-10 06:01:00,44.1,40.4,29.95,SE,135,0.0,0.0,87,0.00,,,0.00,Customized_open2300,2013-10-10 13:01:00,
2013-10-10 06:10:00,43.9,40.3,29.94,SE,135,0.0,0.0,87,0.00,,,0.00,Customized_open2300,2013-10-10 13:10:00,
2013-10-10 06:20:00,43.9,40.3,29.94,East,90,0.0,0.0,87,0.00,,,0.00,Customized_open2300,2013-10-10 13:20:00,
2013-10-10 06:25:00,43.9,40.3,29.94,ESE,112,0.0,0.0,87,0.00,,,0.00,Customized_open2300,2013-10-10 13:25:00,
2013-10-10 06:30:00,43.9,40.3,29.94,ESE,112,0.0,0.0,87,0.00,,,0.00,Customized_open2300,2013-10-10 13:30:00,
2013-10-10 06:40:00,43.7,40.1,29.94,SSE,157,0.0,0.0,87,0.00,,,0.00,Customized_open2300,2013-10-10 13:40:00,
2013-10-10 06:45:00,43.7,40.4,29.94,SSE,157,0.0,0.0,88,0.00,,,0.00,Customized_open2300,2013-10-10 13:45:00,
2013-10-10 06:50:00,43.7,40.1,29.94,SSE,157,0.0,0.0,87,0.00,,,0.00,Customized_open2300,2013-10-10 13:50:00,
2013-10-10 06:55:00,43.5,39.9,29.94,SSE,157,0.0,0.0,87,0.00,,,0.00,Customized_open2300,2013-10-10 13:55:00,
2013-10-10 07:01:00,43.7,40.4,29.94,SSE,157,0.0,0.0,88,0.00,,,0.00,Customized_open2300,2013-10-10 14:01:00,
2013-10-10 07:10:00,43.5,40.2,29.95,SSE,157,0.0,0.0,88,0.00,,,0.00,Customized_open2300,2013-10-10 14:10:00,
2013-10-10 07:15:00,43.5,40.2,29.95,SSE,157,0.0,0.0,88,0.00,,,0.00,Customized_open2300,2013-10-10 14:15:00,
2013-10-10 07:25:00,43.7,40.4,29.96,SSE,157,0.0,0.0,88,0.00,,,0.00,Customized_open2300,2013-10-10 14:25:00,
2013-10-10 07:30:00,43.7,40.4,29.96,SSE,157,0.0,0.0,88,0.00,,,0.00,Customized_open2300,2013-10-10 14:30:00,
2013-10-10 07:40:00,43.9,40.6,29.97,SSE,157,0.0,0.0,88,0.00,,,0.00,Customized_open2300,2013-10-10 14:40:00,
2013-10-10 07:45:00,43.9,40.6,29.97,SSE,157,0.0,0.0,88,0.00,,,0.00,Customized_open2300,2013-10-10 14:45:00,
2013-10-10 07:50:00,43.9,40.6,29.97,SSE,157,0.0,0.0,88,0.00,,,0.00,Customized_open2300,2013-10-10 14:50:00,
2013-10-10 08:00:00,44.1,40.7,29.97,SSE,157,0.0,0.0,88,0.00,,,0.00,Customized_open2300,2013-10-10 15:00:00,
2013-10-10 08:05:00,44.1,40.7,29.97,SE,135,0.0,0.0,88,0.00,,,0.00,Customized_open2300,2013-10-10 15:05:00,
2013-10-10 08:15:00,44.2,40.9,29.97,ESE,112,0.0,0.0,88,0.00,,,0.00,Customized_open2300,2013-10-10 15:15:00,
2013-10-10 08:20:00,44.2,40.9,29.97,ESE,112,0.0,0.0,88,0.00,,,0.00,Customized_open2300,2013-10-10 15:20:00,
2013-10-10 08:25:00,44.4,41.1,29.97,SE,135,0.0,0.0,88,0.00,,,0.00,Customized_open2300,2013-10-10 15:25:00,
2013-10-10 08:30:00,44.4,41.1,29.97,ESE,112,0.0,0.0,88,0.00,,,0.00,Customized_open2300,2013-10-10 15:30:00,
2013-10-10 08:35:00,44.4,41.1,29.97,ESE,112,0.0,0.0,88,0.00,,,0.00,Customized_open2300,2013-10-10 15:35:00,
2013-10-10 08:45:00,44.8,41.8,29.97,ENE,67,0.0,0.0,89,0.00,,,0.00,Customized_open2300,2013-10-10 15:45:00,
2013-10-10 08:50:00,45.0,42.0,29.97,ENE,67,0.0,0.0,89,0.00,,,0.00,Customized_open2300,2013-10-10 15:50:00,
2013-10-10 09:00:00,45.1,42.1,29.98,ENE,67,0.0,0.0,89,0.00,,,0.00,Customized_open2300,2013-10-10 16:00:00,
2013-10-10 09:05:00,45.1,42.1,29.98,ENE,67,0.0,0.0,89,0.00,,,0.00,Customized_open2300,2013-10-10 16:05:00,
2013-10-10 09:15:00,45.5,42.5,29.97,ENE,67,0.0,0.0,89,0.00,,,0.00,Customized_open2300,2013-10-10 16:15:00,
2013-10-10 09:20:00,45.7,42.7,29.98,ENE,67,0.0,0.0,89,0.00,,,0.00,Customized_open2300,2013-10-10 16:20:00,
2013-10-10 09:25:00,45.9,42.9,29.98,ENE,67,0.0,0.0,89,0.00,,,0.00,Customized_open2300,2013-10-10 16:25:00,
2013-10-10 09:35:00,46.0,43.0,29.98,ENE,67,0.0,0.0,89,0.00,,,0.00,Customized_open2300,2013-10-10 16:35:00,
2013-10-10 09:40:00,46.2,43.2,29.98,ENE,67,0.0,0.0,89,0.00,,,0.00,Customized_open2300,2013-10-10 16:40:00,
2013-10-10 09:45:00,46.6,43.6,29.98,ENE,67,0.0,0.0,89,0.00,,,0.00,Customized_open2300,2013-10-10 16:45:00,
2013-10-10 09:50:00,46.6,43.6,29.98,ENE,67,0.0,0.0,89,0.00,,,0.00,Customized_open2300,2013-10-10 16:50:00,
2013-10-10 09:55:00,46.9,43.9,29.98,ENE,67,0.0,0.0,89,0.00,,,0.00,Customized_open2300,2013-10-10 16:55:00,
2013-10-10 10:00:00,46.9,43.9,29.98,ENE,67,0.0,0.0,89,0.00,,,0.00,Customized_open2300,2013-10-10 17:00:00,
2013-10-10 10:05:00,47.1,44.1,29.98,ENE,67,0.0,0.0,89,0.00,,,0.00,Customized_open2300,2013-10-10 17:05:00,
2013-10-10 10:10:00,47.3,44.3,29.98,ENE,67,0.0,0.0,89,0.00,,,0.00,Customized_open2300,2013-10-10 17:10:00,
2013-10-10 10:15:00,47.5,44.5,29.98,ENE,67,0.0,0.0,89,0.00,,,0.00,Customized_open2300,2013-10-10 17:15:00,
2013-10-10 10:25:00,48.0,45.0,29.99,ENE,67,0.0,0.0,89,0.00,,,0.00,Customized_open2300,2013-10-10 17:25:00,
2013-10-10 10:30:00,48.0,45.0,29.98,ENE,67,0.0,0.0,89,0.00,,,0.00,Customized_open2300,2013-10-10 17:30:00,
2013-10-10 10:35:00,48.2,45.2,29.99,ENE,67,0.0,0.0,89,0.00,,,0.00,Customized_open2300,2013-10-10 17:35:00,
2013-10-10 10:45:00,48.7,46.0,29.99,ENE,67,0.0,0.0,90,0.00,,,0.00,Customized_open2300,2013-10-10 17:45:00,
2013-10-10 10:50:00,48.7,45.7,29.99,ENE,67,0.0,0.0,89,0.00,,,0.00,Customized_open2300,2013-10-10 17:50:00,
2013-10-10 10:55:00,49.1,46.0,29.99,ENE,67,0.0,0.0,89,0.00,,,0.00,Customized_open2300,2013-10-10 17:55:00,
2013-10-10 11:05:00,49.6,46.5,29.99,ENE,67,0.0,0.0,89,0.00,,,0.00,Customized_open2300,2013-10-10 18:05:00,
2013-10-10 11:10:00,49.8,46.3,29.99,ENE,67,0.0,0.0,88,0.00,,,0.00,Customized_open2300,2013-10-10 18:10:00,
2013-10-10 11:20:00,50.2,46.7,29.99,ENE,67,0.0,0.0,88,0.00,,,0.00,Customized_open2300,2013-10-10 18:20:00,
2013-10-10 11:25:00,50.4,47.0,29.99,ENE,67,0.0,0.0,88,0.00,,,0.00,Customized_open2300,2013-10-10 18:25:00,
2013-10-10 11:30:00,50.7,46.9,29.99,ENE,67,0.0,0.0,87,0.00,,,0.00,Customized_open2300,2013-10-10 18:30:00,
2013-10-10 11:35:00,50.7,46.6,29.99,ENE,67,0.0,0.0,86,0.00,,,0.00,Customized_open2300,2013-10-10 18:35:00,
2013-10-10 11:40:00,50.9,46.8,29.99,ENE,67,0.0,0.0,86,0.00,,,0.00,Customized_open2300,2013-10-10 18:40:00,
2013-10-10 11:50:00,51.4,47.3,29.99,NNW,337,0.0,0.0,86,0.00,,,0.00,Customized_open2300,2013-10-10 18:50:00,
2013-10-10 11:55:00,51.6,47.5,29.99,NW,315,0.0,0.0,86,0.00,,,0.00,Customized_open2300,2013-10-10 18:55:00,
2013-10-10 12:05:00,52.0,47.9,29.99,WNW,292,0.0,0.0,86,0.00,,,0.00,Customized_open2300,2013-10-10 19:05:00,
2013-10-10 12:10:00,52.3,47.8,30.00,WNW,292,0.0,0.0,85,0.00,,,0.00,Customized_open2300,2013-10-10 19:10:00,
2013-10-10 12:15:00,52.5,48.1,30.00,West,270,0.0,0.0,85,0.00,,,0.00,Customized_open2300,2013-10-10 19:15:00,
2013-10-10 12:25:00,52.9,48.2,30.00,West,270,0.0,0.0,84,0.00,,,0.00,Customized_open2300,2013-10-10 19:25:00,
2013-10-10 12:35:00,53.2,48.2,30.00,West,270,0.0,0.0,83,0.00,,,0.00,Customized_open2300,2013-10-10 19:35:00,
2013-10-10 12:45:00,53.6,48.9,29.99,West,270,0.0,0.0,84,0.00,,,0.00,Customized_open2300,2013-10-10 19:45:00,
2013-10-10 12:55:00,54.0,48.9,29.99,West,270,0.0,0.0,83,0.00,,,0.00,Customized_open2300,2013-10-10 19:55:00,
2013-10-10 13:05:00,54.3,49.2,29.99,WNW,292,0.0,0.0,83,0.00,,,0.00,Customized_open2300,2013-10-10 20:05:00,
2013-10-10 13:15:00,55.0,49.6,29.98,NW,315,0.0,0.0,82,0.00,,,0.00,Customized_open2300,2013-10-10 20:15:00,
2013-10-10 13:20:00,55.2,49.4,29.99,WNW,292,0.0,0.0,81,0.00,,,0.00,Customized_open2300,2013-10-10 20:20:00,
2013-10-10 13:35:00,55.6,49.8,29.99,SW,225,0.0,0.0,81,0.00,,,0.00,Customized_open2300,2013-10-10 20:35:00,
2013-10-10 13:40:00,55.8,49.6,29.99,WSW,247,0.0,0.0,80,0.00,,,0.00,Customized_open2300,2013-10-10 20:40:00,
2013-10-10 13:45:00,55.9,49.8,29.99,WSW,247,0.0,0.0,80,0.00,,,0.00,Customized_open2300,2013-10-10 20:45:00,
2013-10-10 13:50:00,56.1,50.0,29.98,WSW,247,0.0,0.0,80,0.00,,,0.00,Customized_open2300,2013-10-10 20:50:00,
2013-10-10 13:55:00,56.5,50.0,29.98,WSW,247,0.0,0.0,79,0.00,,,0.00,Customized_open2300,2013-10-10 20:55:00,
2013-10-10 14:05:00,57.0,50.2,29.98,SW,225,0.0,0.0,78,0.00,,,0.00,Customized_open2300,2013-10-10 21:05:00,
2013-10-10 14:15:00,57.6,50.4,29.98,WSW,247,0.0,0.0,77,0.00,,,0.00,Customized_open2300,2013-10-10 21:15:00,
2013-10-10 14:20:00,57.7,50.2,29.98,WSW,247,0.0,0.0,76,0.00,,,0.00,Customized_open2300,2013-10-10 21:20:00,
2013-10-10 14:25:00,57.9,50.4,29.98,WSW,247,0.0,0.0,76,0.00,,,0.00,Customized_open2300,2013-10-10 21:25:00,
2013-10-10 14:35:00,58.3,50.0,29.98,WSW,247,0.0,0.0,74,0.00,,,0.00,Customized_open2300,2013-10-10 21:35:00,
2013-10-10 14:40:00,58.6,50.0,29.98,WSW,247,0.0,0.0,73,0.00,,,0.00,Customized_open2300,2013-10-10 21:40:00,
2013-10-10 14:45:00,58.6,50.0,29.98,WSW,247,0.0,0.0,73,0.00,,,0.00,Customized_open2300,2013-10-10 21:45:00,
2013-10-10 14:55:00,58.8,49.8,29.98,WSW,247,0.0,0.0,72,0.00,,,0.00,Customized_open2300,2013-10-10 21:55:00,
2013-10-10 15:05:00,59.0,50.0,29.98,WSW,247,0.0,0.0,72,0.00,,,0.00,Customized_open2300,2013-10-10 22:05:00,
2013-10-10 15:10:00,59.4,49.2,29.98,WSW,247,0.0,0.0,69,0.00,,,0.00,Customized_open2300,2013-10-10 22:10:00,
2013-10-10 15:15:00,59.4,48.8,29.98,WSW,247,0.0,0.0,68,0.00,,,0.00,Customized_open2300,2013-10-10 22:15:00,
2013-10-10 15:25:00,59.5,48.6,29.98,WSW,247,0.0,0.0,67,0.00,,,0.00,Customized_open2300,2013-10-10 22:25:00,
2013-10-10 15:30:00,59.5,49.0,29.98,WSW,247,0.0,0.0,68,0.00,,,0.00,Customized_open2300,2013-10-10 22:30:00,
2013-10-10 15:40:00,59.5,48.6,29.98,WSW,247,0.0,0.0,67,0.00,,,0.00,Customized_open2300,2013-10-10 22:40:00,
2013-10-10 15:50:00,59.5,48.6,29.98,WSW,247,0.0,0.0,67,0.00,,,0.00,Customized_open2300,2013-10-10 22:50:00,
2013-10-10 15:55:00,59.5,48.2,29.98,WSW,247,0.0,0.0,66,0.00,,,0.00,Customized_open2300,2013-10-10 22:55:00,
2013-10-10 16:00:00,59.4,48.0,29.98,WSW,247,0.0,0.0,66,0.00,,,0.00,Customized_open2300,2013-10-10 23:00:00,
2013-10-10 16:05:00,59.4,47.6,29.98,WSW,247,0.0,0.0,65,0.00,,,0.00,Customized_open2300,2013-10-10 23:05:00,
2013-10-10 16:10:00,59.2,47.8,29.98,WSW,247,0.0,0.0,66,0.00,,,0.00,Customized_open2300,2013-10-10 23:10:00,
2013-10-10 16:15:00,59.0,47.6,29.98,WSW,247,0.0,0.0,66,0.00,,,0.00,Customized_open2300,2013-10-10 23:15:00,
2013-10-10 16:20:00,59.2,47.4,29.98,NNW,337,0.0,0.0,65,0.00,,,0.00,Customized_open2300,2013-10-10 23:20:00,
2013-10-10 16:25:00,58.8,46.6,29.98,NNW,337,0.0,0.0,64,0.00,,,0.00,Customized_open2300,2013-10-10 23:25:00,
2013-10-10 16:35:00,58.8,47.0,29.98,NNW,337,0.0,0.0,65,0.00,,,0.00,Customized_open2300,2013-10-10 23:35:00,
2013-10-10 16:40:00,58.8,46.2,29.98,NNW,337,0.0,0.0,63,0.00,,,0.00,Customized_open2300,2013-10-10 23:40:00,
2013-10-10 16:45:00,58.8,46.2,29.98,NNW,337,0.0,0.0,63,0.00,,,0.00,Customized_open2300,2013-10-10 23:45:00,
2013-10-10 16:50:00,58.8,46.2,29.98,NNW,337,0.0,0.0,63,0.00,,,0.00,Customized_open2300,2013-10-10 23:50:00,
2013-10-10 16:55:00,58.8,47.0,29.98,NNW,337,0.0,0.0,65,0.00,,,0.00,Customized_open2300,2013-10-10 23:55:00,
2013-10-10 17:00:00,58.8,47.0,29.98,NNW,337,0.0,0.0,65,0.00,,,0.00,Customized_open2300,2013-10-11 00:00:00,
2013-10-10 17:05:00,58.8,47.0,29.98,NNW,337,0.0,0.0,65,0.00,,,0.00,Customized_open2300,2013-10-11 00:05:00,
2013-10-10 17:15:00,58.6,47.3,29.98,NNW,337,0.0,0.0,66,0.00,,,0.00,Customized_open2300,2013-10-11 00:15:00,
2013-10-10 17:20:00,58.6,47.7,29.98,NNW,337,0.0,0.0,67,0.00,,,0.00,Customized_open2300,2013-10-11 00:20:00,
2013-10-10 17:30:00,58.3,47.7,29.98,NNW,337,0.0,0.0,68,0.00,,,0.00,Customized_open2300,2013-10-11 00:30:00,
2013-10-10 17:35:00,58.1,47.6,29.98,NNW,337,0.0,0.0,68,0.00,,,0.00,Customized_open2300,2013-10-11 00:35:00,
2013-10-10 17:45:00,57.9,47.4,29.98,NNW,337,0.0,0.0,68,0.00,,,0.00,Customized_open2300,2013-10-11 00:45:00,
2013-10-10 17:50:00,57.9,47.8,29.98,NNW,337,0.0,0.0,69,0.00,,,0.00,Customized_open2300,2013-10-11 00:50:00,
2013-10-10 17:55:00,57.7,47.6,29.98,NNW,337,0.0,0.0,69,0.00,,,0.00,Customized_open2300,2013-10-11 00:55:00,
2013-10-10 18:00:00,57.7,47.6,29.98,NNW,337,0.0,0.0,69,0.00,,,0.00,Customized_open2300,2013-10-11 01:00:00,
2013-10-10 18:05:00,57.6,47.4,29.98,NNW,337,0.0,0.0,69,0.00,,,0.00,Customized_open2300,2013-10-11 01:05:00,
2013-10-10 18:15:00,57.4,47.7,29.98,NNW,337,0.0,0.0,70,0.00,,,0.00,Customized_open2300,2013-10-11 01:15:00,
2013-10-10 18:25:00,57.0,47.3,29.98,NNW,337,0.0,0.0,70,0.00,,,0.00,Customized_open2300,2013-10-11 01:25:00,
2013-10-10 18:35:00,56.8,47.2,29.99,NNW,337,0.0,0.0,70,0.00,,,0.00,Customized_open2300,2013-10-11 01:35:00,
2013-10-10 18:40:00,56.8,47.2,29.99,NNW,337,0.0,0.0,70,0.00,,,0.00,Customized_open2300,2013-10-11 01:40:00,
2013-10-10 18:50:00,56.7,47.3,30.00,NNW,337,0.0,0.0,71,0.00,,,0.00,Customized_open2300,2013-10-11 01:50:00,
2013-10-10 18:55:00,56.5,47.2,29.99,NNW,337,0.0,0.0,71,0.00,,,0.00,Customized_open2300,2013-10-11 01:55:00,
2013-10-10 19:05:00,56.3,47.4,29.99,NNW,337,0.0,0.0,72,0.00,,,0.00,Customized_open2300,2013-10-11 02:05:00,
2013-10-10 19:10:00,56.3,47.4,30.00,NNW,337,0.0,0.0,72,0.00,,,0.00,Customized_open2300,2013-10-11 02:10:00,
2013-10-10 19:15:00,56.1,47.6,30.00,NNW,337,0.0,0.0,73,0.00,,,0.00,Customized_open2300,2013-10-11 02:15:00,
2013-10-10 19:20:00,56.1,47.6,30.00,NNW,337,0.0,0.0,73,0.00,,,0.00,Customized_open2300,2013-10-11 02:20:00,
2013-10-10 19:30:00,55.9,47.4,30.00,NNW,337,0.0,0.0,73,0.00,,,0.00,Customized_open2300,2013-10-11 02:30:00,
2013-10-10 19:35:00,55.9,47.7,30.00,NNW,337,0.0,0.0,74,0.00,,,0.00,Customized_open2300,2013-10-11 02:35:00,
2013-10-10 19:45:00,55.8,47.6,30.00,NNW,337,0.0,0.0,74,0.00,,,0.00,Customized_open2300,2013-10-11 02:45:00,
2013-10-10 19:50:00,55.6,47.4,30.01,NNW,337,0.0,0.0,74,0.00,,,0.00,Customized_open2300,2013-10-11 02:50:00,
2013-10-10 19:55:00,55.6,47.7,30.01,NNW,337,0.0,0.0,75,0.00,,,0.00,Customized_open2300,2013-10-11 02:55:00,
2013-10-10 20:00:00,55.6,47.7,30.01,NNW,337,0.0,0.0,75,0.00,,,0.00,Customized_open2300,2013-10-11 03:00:00,
2013-10-10 20:05:00,55.6,47.7,30.01,NNW,337,0.0,0.0,75,0.00,,,0.00,Customized_open2300,2013-10-11 03:05:00,
2013-10-10 20:15:00,55.2,47.7,30.01,NNW,337,0.0,0.0,76,0.00,,,0.00,Customized_open2300,2013-10-11 03:15:00,
2013-10-10 20:20:00,55.2,48.1,30.01,NNW,337,0.0,0.0,77,0.00,,,0.00,Customized_open2300,2013-10-11 03:20:00,
2013-10-10 20:30:00,55.0,47.9,30.01,NNW,337,0.0,0.0,77,0.00,,,0.00,Customized_open2300,2013-10-11 03:30:00,
2013-10-10 20:35:00,55.0,47.9,30.02,NNW,337,0.0,0.0,77,0.00,,,0.00,Customized_open2300,2013-10-11 03:35:00,
2013-10-10 20:40:00,55.0,47.9,30.02,NNW,337,0.0,0.0,77,0.00,,,0.00,Customized_open2300,2013-10-11 03:40:00,
2013-10-10 20:45:00,55.0,47.9,30.02,NNW,337,0.0,0.0,77,0.00,,,0.00,Customized_open2300,2013-10-11 03:45:00,
2013-10-10 20:55:00,55.0,48.3,30.02,NNW,337,0.0,0.0,78,0.00,,,0.00,Customized_open2300,2013-10-11 03:55:00,
2013-10-10 21:00:00,55.0,48.3,30.02,NNW,337,0.0,0.0,78,0.00,,,0.00,Customized_open2300,2013-10-11 04:00:00,
2013-10-10 21:05:00,55.0,48.3,30.02,NNW,337,0.0,0.0,78,0.00,,,0.00,Customized_open2300,2013-10-11 04:05:00,
2013-10-10 21:10:00,55.0,48.3,30.02,NNW,337,0.0,0.0,78,0.00,,,0.00,Customized_open2300,2013-10-11 04:10:00,
2013-10-10 21:15:00,54.9,48.1,30.03,NNW,337,0.0,0.0,78,0.00,,,0.00,Customized_open2300,2013-10-11 04:15:00,
2013-10-10 21:20:00,54.9,48.4,30.02,NNW,337,0.0,0.0,79,0.00,,,0.00,Customized_open2300,2013-10-11 04:20:00,
2013-10-10 21:25:00,54.7,48.3,30.02,NNW,337,0.0,0.0,79,0.00,,,0.00,Customized_open2300,2013-10-11 04:25:00,
2013-10-10 21:30:00,54.7,48.3,30.03,NNW,337,0.0,0.0,79,0.00,,,0.00,Customized_open2300,2013-10-11 04:30:00,
2013-10-10 21:35:00,54.7,48.3,30.03,North,0,0.0,0.0,79,0.00,,,0.00,Customized_open2300,2013-10-11 04:35:00,
2013-10-10 21:40:00,54.7,48.3,30.03,North,0,0.0,0.0,79,0.00,,,0.00,Customized_open2300,2013-10-11 04:40:00,
2013-10-10 21:50:00,54.5,48.1,30.03,North,0,0.0,0.0,79,0.00,,,0.00,Customized_open2300,2013-10-11 04:50:00,
2013-10-10 21:55:00,54.3,47.9,30.03,North,0,0.0,0.0,79,0.00,,,0.00,Customized_open2300,2013-10-11 04:55:00,
2013-10-10 22:00:00,54.3,47.9,30.03,North,0,0.0,0.0,79,0.00,,,0.00,Customized_open2300,2013-10-11 05:00:00,
2013-10-10 22:10:00,54.3,47.9,30.04,North,0,0.0,0.0,79,0.00,,,0.00,Customized_open2300,2013-10-11 05:10:00,
2013-10-10 22:15:00,54.3,47.9,30.04,North,0,0.0,0.0,79,0.00,,,0.00,Customized_open2300,2013-10-11 05:15:00,
2013-10-10 22:20:00,54.1,47.8,30.04,North,0,0.0,0.0,79,0.00,,,0.00,Customized_open2300,2013-10-11 05:20:00,
2013-10-10 22:25:00,54.1,47.8,30.04,North,0,0.0,0.0,79,0.00,,,0.00,Customized_open2300,2013-10-11 05:25:00,
2013-10-10 22:30:00,54.1,47.8,30.04,North,0,0.0,0.0,79,0.00,,,0.00,Customized_open2300,2013-10-11 05:30:00,
2013-10-10 22:35:00,54.1,47.8,30.04,North,0,0.0,0.0,79,0.00,,,0.00,Customized_open2300,2013-10-11 05:35:00,
2013-10-10 22:40:00,54.0,47.6,30.04,North,0,0.0,0.0,79,0.00,,,0.00,Customized_open2300,2013-10-11 05:40:00,
2013-10-10 22:50:00,53.8,47.5,30.04,North,0,0.0,0.0,79,0.00,,,0.00,Customized_open2300,2013-10-11 05:50:00,
2013-10-10 22:55:00,53.8,47.5,30.05,North,0,0.0,0.0,79,0.00,,,0.00,Customized_open2300,2013-10-11 05:55:00,
2013-10-10 23:00:00,53.6,46.9,30.05,North,0,0.0,0.0,78,0.00,,,0.00,Customized_open2300,2013-10-11 06:00:00,
2013-10-10 23:10:00,53.4,46.8,30.05,North,0,0.0,0.0,78,0.00,,,0.00,Customized_open2300,2013-10-11 06:10:00,
2013-10-10 23:20:00,53.4,46.8,30.06,North,0,0.0,0.0,78,0.00,,,0.00,Customized_open2300,2013-10-11 06:20:00,
2013-10-10 23:25:00,53.4,46.8,30.06,North,0,0.0,0.0,78,0.00,,,0.00,Customized_open2300,2013-10-11 06:25:00,
2013-10-10 23:35:00,53.4,46.8,30.06,North,0,0.0,0.0,78,0.00,,,0.00,Customized_open2300,2013-10-11 06:35:00,
2013-10-10 23:45:00,53.2,46.9,30.06,North,0,0.0,0.0,79,0.00,,,0.00,Customized_open2300,2013-10-11 06:45:00,
2013-10-10 23:55:00,53.1,46.8,30.06,North,0,0.0,0.0,79,0.00,,,0.00,Customized_open2300,2013-10-11 06:55:00,